createdAt,value
2019-05-31T00:01:11.699Z,10.47
2019-05-31T00:03:41.119Z,12.10
2019-05-31T00:06:09.963Z,12.83
2019-05-31T00:08:38.754Z,14.40
2019-05-31T00:11:07.513Z,13.43
2019-05-31T00:13:36.301Z,14.50
2019-05-31T00:16:05.564Z,14.97
2019-05-31T00:18:36.035Z,12.83
2019-05-31T00:21:05.075Z,11.07
2019-05-31T00:23:33.952Z,10.63
2019-05-31T00:26:02.864Z,9.50
2019-05-31T00:28:31.724Z,9.80
2019-05-31T00:31:02.366Z,9.60
2019-05-31T00:33:31.769Z,9.13
2019-05-31T00:36:01.530Z,8.50
2019-05-31T00:38:30.923Z,8.80
2019-05-31T00:41:01.016Z,8.87
2019-05-31T00:43:30.173Z,7.90
2019-05-31T00:45:59.548Z,8.27
2019-05-31T00:48:28.507Z,7.47
2019-05-31T00:50:57.683Z,8.87
2019-05-31T00:53:26.732Z,6.93
2019-05-31T00:55:56.131Z,7.43
2019-05-31T00:58:25.457Z,8.10
2019-05-31T01:00:54.314Z,8.60
2019-05-31T01:03:23.225Z,8.20
2019-05-31T01:05:52.197Z,8.20
2019-05-31T01:08:21.310Z,9.73
2019-05-31T01:10:50.105Z,8.00
2019-05-31T01:13:19.300Z,8.90
2019-05-31T01:15:48.091Z,8.47
2019-05-31T01:18:16.991Z,8.57
2019-05-31T01:20:45.853Z,7.40
2019-05-31T01:23:14.684Z,8.00
2019-05-31T01:25:43.470Z,7.80
2019-05-31T01:28:12.353Z,8.10
2019-05-31T01:30:41.146Z,7.60
2019-05-31T01:33:10.088Z,7.93
2019-05-31T01:35:39.009Z,7.97
2019-05-31T01:38:08.465Z,7.47
2019-05-31T01:40:37.613Z,7.20
2019-05-31T01:43:07.183Z,7.57
2019-05-31T01:45:36.784Z,8.53
2019-05-31T01:48:05.750Z,7.57
2019-05-31T01:50:34.625Z,7.57
2019-05-31T01:53:04.103Z,7.27
2019-05-31T01:55:33.021Z,6.57
2019-05-31T01:58:02.527Z,7.80
2019-05-31T02:00:31.862Z,6.57
2019-05-31T02:03:00.646Z,7.90
2019-05-31T02:05:29.707Z,9.40
2019-05-31T02:07:58.919Z,7.53
2019-05-31T02:10:27.797Z,9.40
2019-05-31T02:12:56.910Z,8.77
2019-05-31T02:15:32.177Z,8.37
2019-05-31T02:17:57.152Z,9.50
2019-05-31T02:20:25.974Z,8.30
2019-05-31T02:22:55.129Z,8.77
2019-05-31T02:25:23.985Z,8.40
2019-05-31T02:27:52.909Z,9.53
2019-05-31T02:30:21.737Z,9.10
2019-05-31T02:32:50.606Z,10.23
2019-05-31T02:35:21.954Z,9.50
2019-05-31T02:37:51.483Z,8.60
2019-05-31T02:40:20.762Z,9.40
2019-05-31T02:42:49.610Z,8.30
2019-05-31T02:45:19.073Z,9.23
2019-05-31T02:47:48.179Z,9.70
2019-05-31T02:50:20.965Z,8.87
2019-05-31T02:52:49.840Z,9.30
2019-05-31T02:55:19.148Z,9.70
2019-05-31T02:57:51.073Z,8.50
2019-05-31T03:00:22.352Z,9.83
2019-05-31T03:02:53.288Z,9.03
2019-05-31T03:05:22.134Z,8.33
2019-05-31T03:07:54.781Z,8.07
2019-05-31T03:10:23.892Z,8.20
2019-05-31T03:12:54.107Z,8.57
2019-05-31T03:15:24.736Z,8.57
2019-05-31T03:17:54.712Z,7.80
2019-05-31T03:20:23.585Z,8.53
2019-05-31T03:22:52.375Z,8.47
2019-05-31T03:25:21.853Z,8.13
2019-05-31T03:27:52.058Z,8.80
2019-05-31T03:30:31.705Z,9.77
2019-05-31T03:32:51.656Z,10.13
2019-05-31T03:35:28.028Z,9.97
2019-05-31T03:37:51.027Z,10.70
2019-05-31T03:40:21.628Z,8.53
2019-05-31T03:42:50.714Z,8.90
2019-05-31T03:45:21.252Z,8.53
2019-05-31T03:47:50.049Z,9.57
2019-05-31T03:50:19.399Z,8.73
2019-05-31T03:52:49.903Z,9.33
2019-05-31T03:55:19.900Z,8.17
2019-05-31T03:57:49.236Z,8.17
2019-05-31T04:00:21.460Z,9.30
2019-05-31T04:02:51.062Z,8.47
2019-05-31T04:05:20.969Z,8.20
2019-05-31T04:07:49.883Z,8.63
2019-05-31T04:10:20.095Z,9.07
2019-05-31T04:12:49.700Z,9.00
2019-05-31T04:15:19.386Z,10.30
2019-05-31T04:17:48.743Z,9.47
2019-05-31T04:20:18.136Z,8.00
2019-05-31T04:22:48.318Z,7.67
2019-05-31T04:25:19.112Z,8.33
2019-05-31T04:27:48.063Z,7.50
2019-05-31T04:30:18.115Z,8.53
2019-05-31T04:32:47.460Z,7.47
2019-05-31T04:35:18.373Z,8.57
2019-05-31T04:37:46.967Z,10.10
2019-05-31T04:40:16.843Z,8.27
2019-05-31T04:42:46.481Z,8.23
2019-05-31T04:45:16.053Z,8.00
2019-05-31T04:47:45.153Z,7.60
2019-05-31T04:50:14.156Z,7.90
2019-05-31T04:52:42.990Z,10.13
2019-05-31T04:55:12.036Z,8.23
2019-05-31T04:57:40.922Z,9.47
2019-05-31T05:00:10.067Z,8.60
2019-05-31T05:02:38.935Z,9.50
2019-05-31T05:05:08.280Z,9.43
2019-05-31T05:07:37.520Z,10.43
2019-05-31T05:10:06.791Z,10.33
2019-05-31T05:12:35.664Z,8.80
2019-05-31T05:15:05.560Z,8.33
2019-05-31T05:17:41.236Z,7.90
2019-05-31T05:20:05.867Z,7.07
2019-05-31T05:22:34.768Z,8.30
2019-05-31T05:25:03.892Z,8.13
2019-05-31T05:27:32.730Z,8.50
2019-05-31T05:30:01.697Z,8.60
2019-05-31T05:32:31.137Z,7.53
2019-05-31T05:35:00.348Z,6.07
2019-05-31T05:37:29.199Z,5.87
2019-05-31T05:39:58.550Z,6.20
2019-05-31T05:42:29.074Z,5.50
2019-05-31T05:44:58.083Z,4.97
2019-05-31T05:47:28.840Z,6.50
2019-05-31T05:49:57.528Z,6.00
2019-05-31T05:52:26.315Z,5.33
2019-05-31T05:54:55.377Z,5.50
2019-05-31T05:57:24.697Z,4.57
2019-05-31T05:59:53.560Z,5.03
2019-05-31T06:02:23.378Z,4.63
2019-05-31T06:04:52.520Z,4.73
2019-05-31T06:07:22.212Z,4.90
2019-05-31T06:09:51.227Z,4.30
2019-05-31T06:12:20.015Z,4.50
2019-05-31T06:14:48.876Z,3.63
2019-05-31T06:17:17.739Z,4.07
2019-05-31T06:19:46.568Z,4.20
2019-05-31T06:22:15.453Z,3.60
2019-05-31T06:24:44.237Z,3.60
2019-05-31T06:27:13.045Z,3.63
2019-05-31T06:29:41.852Z,4.17
2019-05-31T06:32:10.917Z,3.70
2019-05-31T06:34:39.733Z,3.80
2019-05-31T06:37:08.551Z,3.47
2019-05-31T06:39:37.378Z,3.87
2019-05-31T06:42:06.379Z,2.90
2019-05-31T06:44:35.445Z,3.40
2019-05-31T06:47:04.772Z,3.53
2019-05-31T06:49:33.682Z,3.60
2019-05-31T06:52:02.567Z,4.10
2019-05-31T06:54:33.493Z,4.30
2019-05-31T06:57:02.359Z,4.23
2019-05-31T06:59:32.213Z,3.90
2019-05-31T07:02:01.265Z,5.03
2019-05-31T07:04:31.342Z,3.90
2019-05-31T07:07:00.573Z,3.37
2019-05-31T07:09:29.410Z,3.80
2019-05-31T07:11:58.286Z,3.73
2019-05-31T07:14:27.759Z,4.00
2019-05-31T07:16:57.052Z,3.87
2019-05-31T07:19:25.913Z,4.97
2019-05-31T07:21:55.101Z,3.93
2019-05-31T07:24:24.217Z,3.80
2019-05-31T07:27:00.603Z,3.90
2019-05-31T07:29:32.408Z,3.70
2019-05-31T07:31:55.117Z,3.80
2019-05-31T07:34:23.917Z,3.90
2019-05-31T07:36:52.702Z,3.43
2019-05-31T07:39:21.853Z,4.23
2019-05-31T07:41:50.969Z,3.77
2019-05-31T07:44:19.781Z,3.60
2019-05-31T07:47:03.097Z,3.90
2019-05-31T07:49:19.384Z,4.10
2019-05-31T07:51:48.165Z,3.53
2019-05-31T07:54:17.332Z,3.30
2019-05-31T07:56:46.116Z,5.13
2019-05-31T07:59:14.887Z,4.17
2019-05-31T08:01:43.886Z,3.00
2019-05-31T08:04:12.780Z,3.63
2019-05-31T08:06:41.565Z,4.60
2019-05-31T08:09:10.451Z,3.10
2019-05-31T08:11:39.591Z,3.90
2019-05-31T08:14:08.469Z,4.17
2019-05-31T08:16:53.807Z,3.67
2019-05-31T08:19:15.785Z,3.90
2019-05-31T08:21:38.902Z,3.47
2019-05-31T08:24:19.171Z,4.37
2019-05-31T08:26:40.869Z,3.87
2019-05-31T08:29:08.721Z,4.40
2019-05-31T08:31:37.802Z,4.20
2019-05-31T08:34:06.628Z,4.20
2019-05-31T08:36:36.807Z,4.27
2019-05-31T08:39:08.103Z,4.17
2019-05-31T08:41:37.030Z,4.17
2019-05-31T08:44:07.400Z,4.33
2019-05-31T08:46:37.497Z,4.67
2019-05-31T08:49:06.747Z,3.70
2019-05-31T08:51:35.821Z,3.50
2019-05-31T08:54:07.216Z,4.10
2019-05-31T08:56:36.148Z,4.47
2019-05-31T08:59:05.186Z,4.33
2019-05-31T09:01:34.128Z,4.03
2019-05-31T09:04:03.468Z,4.33
2019-05-31T09:06:32.327Z,4.63
2019-05-31T09:09:01.153Z,4.43
2019-05-31T09:11:32.105Z,5.10
2019-05-31T09:14:00.774Z,4.50
2019-05-31T09:16:31.216Z,4.50
2019-05-31T09:19:00.493Z,5.10
2019-05-31T09:21:31.302Z,4.47
2019-05-31T09:24:01.227Z,5.30
2019-05-31T09:26:33.381Z,4.70
2019-05-31T09:29:00.692Z,4.53
2019-05-31T09:31:29.492Z,5.10
2019-05-31T09:33:58.555Z,5.20
2019-05-31T09:36:27.746Z,5.57
2019-05-31T09:38:56.542Z,5.77
2019-05-31T09:41:25.632Z,5.20
2019-05-31T09:43:54.461Z,6.03
2019-05-31T09:46:23.316Z,6.50
2019-05-31T09:48:52.232Z,6.27
2019-05-31T09:51:21.320Z,6.80
2019-05-31T09:53:50.162Z,6.77
2019-05-31T09:56:19.036Z,6.30
2019-05-31T09:58:47.846Z,6.67
2019-05-31T10:01:16.887Z,6.97
2019-05-31T10:03:45.669Z,6.30
2019-05-31T10:06:14.470Z,6.93
2019-05-31T10:08:45.583Z,7.73
2019-05-31T10:11:14.594Z,5.90
2019-05-31T10:13:43.428Z,6.60
2019-05-31T10:16:12.308Z,7.80
2019-05-31T10:18:41.166Z,6.40
2019-05-31T10:21:10.172Z,6.17
2019-05-31T10:23:51.660Z,6.30
2019-05-31T10:26:09.576Z,6.37
2019-05-31T10:28:39.128Z,7.60
2019-05-31T10:31:15.727Z,6.33
2019-05-31T10:33:39.678Z,6.17
2019-05-31T10:36:08.672Z,7.50
2019-05-31T10:38:38.571Z,7.00
2019-05-31T10:41:08.014Z,7.23
2019-05-31T10:43:38.205Z,6.50
2019-05-31T10:46:07.173Z,7.03
2019-05-31T10:48:36.288Z,6.00
2019-05-31T10:51:05.439Z,5.97
2019-05-31T10:53:35.336Z,6.30
2019-05-31T10:56:05.033Z,5.27
2019-05-31T10:58:34.169Z,5.50
2019-05-31T11:01:03.620Z,8.23
2019-05-31T11:03:32.570Z,7.10
2019-05-31T11:06:01.784Z,7.63
2019-05-31T11:08:30.659Z,6.90
2019-05-31T11:10:59.528Z,5.90
2019-05-31T11:13:28.308Z,7.00
2019-05-31T11:15:57.624Z,5.40
2019-05-31T11:18:26.413Z,6.30
2019-05-31T11:21:03.003Z,5.10
2019-05-31T11:23:25.786Z,6.53
2019-05-31T11:25:54.610Z,4.77
2019-05-31T11:28:23.625Z,5.50
2019-05-31T11:30:53.087Z,5.17
2019-05-31T11:33:38.761Z,5.13
2019-05-31T11:35:52.579Z,4.77
2019-05-31T11:38:21.792Z,6.00
2019-05-31T11:40:50.992Z,4.77
2019-05-31T11:43:20.188Z,4.30
2019-05-31T11:45:49.072Z,4.80
2019-05-31T11:48:17.978Z,5.30
2019-05-31T11:50:47.831Z,4.40
2019-05-31T11:53:17.075Z,4.97
2019-05-31T11:55:47.042Z,5.10
2019-05-31T11:58:16.184Z,5.60
2019-05-31T12:00:46.100Z,4.50
2019-05-31T12:03:15.033Z,5.90
2019-05-31T12:05:43.931Z,5.67
2019-05-31T12:08:13.093Z,5.63
2019-05-31T12:10:42.676Z,5.43
2019-05-31T12:13:11.993Z,5.60
2019-05-31T12:15:42.475Z,5.77
2019-05-31T12:18:11.872Z,5.40
2019-05-31T12:20:40.703Z,5.10
2019-05-31T12:23:10.044Z,5.07
2019-05-31T12:25:38.853Z,5.47
2019-05-31T12:28:07.677Z,6.20
2019-05-31T12:30:36.493Z,5.50
2019-05-31T12:33:05.281Z,5.03
2019-05-31T12:35:34.124Z,5.60
2019-05-31T12:38:03.007Z,5.47
2019-05-31T12:40:31.787Z,5.90
2019-05-31T12:43:05.706Z,5.50
2019-05-31T12:45:31.198Z,5.97
2019-05-31T12:48:00.013Z,6.47
2019-05-31T12:50:28.993Z,6.67
2019-05-31T12:52:57.863Z,6.20
2019-05-31T12:55:27.082Z,5.67
2019-05-31T12:57:55.888Z,6.83
2019-05-31T13:00:25.267Z,5.87
2019-05-31T13:02:57.146Z,6.40
2019-05-31T13:05:25.381Z,5.50
2019-05-31T13:07:57.474Z,5.70
2019-05-31T13:10:25.137Z,5.00
2019-05-31T13:12:53.936Z,6.63
2019-05-31T13:15:23.233Z,4.73
2019-05-31T13:17:53.211Z,4.80
2019-05-31T13:20:22.776Z,5.47
2019-05-31T13:22:52.175Z,4.87
2019-05-31T13:25:21.619Z,6.33
2019-05-31T13:27:51.131Z,5.47
2019-05-31T13:30:21.601Z,7.03
2019-05-31T13:32:52.779Z,5.27
2019-05-31T13:35:21.169Z,6.00
2019-05-31T13:37:52.525Z,5.87
2019-05-31T13:40:20.890Z,5.30
2019-05-31T13:42:49.813Z,5.73
2019-05-31T13:45:19.035Z,5.70
2019-05-31T13:47:51.396Z,5.90
2019-05-31T13:50:18.915Z,5.73
2019-05-31T13:52:48.518Z,5.37
2019-05-31T13:55:17.714Z,5.13
2019-05-31T13:57:46.904Z,6.10
2019-05-31T14:00:16.616Z,6.27
2019-05-31T14:02:45.480Z,5.40
2019-05-31T14:05:14.363Z,6.20
2019-05-31T14:07:43.214Z,6.03
2019-05-31T14:10:12.750Z,5.70
2019-05-31T14:12:41.557Z,6.37
2019-05-31T14:15:12.630Z,5.63
2019-05-31T14:17:41.941Z,6.20
2019-05-31T14:20:11.217Z,5.13
2019-05-31T14:22:54.926Z,5.73
2019-05-31T14:25:11.301Z,6.67
2019-05-31T14:27:40.347Z,7.40
2019-05-31T14:30:10.054Z,8.77
2019-05-31T14:32:39.040Z,6.70
2019-05-31T14:35:08.778Z,7.93
2019-05-31T14:37:37.875Z,6.13
2019-05-31T14:40:08.650Z,5.70
2019-05-31T14:42:37.511Z,6.87
2019-05-31T14:45:08.446Z,9.67
2019-05-31T14:47:37.686Z,6.53
2019-05-31T14:50:07.368Z,5.53
2019-05-31T14:52:36.553Z,6.23
2019-05-31T14:55:06.156Z,5.60
2019-05-31T14:57:35.113Z,6.23
2019-05-31T15:00:04.875Z,7.40
2019-05-31T15:02:33.684Z,7.20
2019-05-31T15:05:05.471Z,6.90
2019-05-31T15:07:34.456Z,7.63
2019-05-31T15:10:03.613Z,7.00
2019-05-31T15:12:34.275Z,7.50
2019-05-31T15:15:03.454Z,7.77
2019-05-31T15:17:32.300Z,7.67
2019-05-31T15:20:01.572Z,6.60
2019-05-31T15:22:31.000Z,7.00
2019-05-31T15:25:01.106Z,8.10
2019-05-31T15:27:30.258Z,6.43
2019-05-31T15:29:59.281Z,6.77
2019-05-31T15:32:57.387Z,6.40
2019-05-31T15:35:57.580Z,6.63
2019-05-31T15:38:27.067Z,5.80
2019-05-31T15:41:00.296Z,6.17
2019-05-31T15:43:29.768Z,6.40
2019-05-31T15:45:58.784Z,6.20
2019-05-31T15:48:27.672Z,6.23
2019-05-31T15:50:56.787Z,5.73
2019-05-31T15:53:33.829Z,6.90
2019-05-31T15:55:57.257Z,5.93
2019-05-31T15:58:26.201Z,5.37
2019-05-31T16:00:55.734Z,5.47
2019-05-31T16:03:35.502Z,5.97
2019-05-31T16:05:56.223Z,5.50
2019-05-31T16:08:25.087Z,5.87
2019-05-31T16:10:54.264Z,5.93
2019-05-31T16:13:23.308Z,5.40
2019-05-31T16:15:52.176Z,6.03
2019-05-31T16:18:21.347Z,5.80
2019-05-31T16:20:50.186Z,5.17
2019-05-31T16:23:19.037Z,4.93
2019-05-31T16:25:48.207Z,5.20
2019-05-31T16:28:17.024Z,5.10
2019-05-31T16:30:46.469Z,5.40
2019-05-31T16:33:15.591Z,5.27
2019-05-31T16:35:44.575Z,5.90
2019-05-31T16:38:13.378Z,5.17
2019-05-31T16:40:42.400Z,5.70
2019-05-31T16:43:12.625Z,5.10
2019-05-31T16:45:42.004Z,5.50
2019-05-31T16:48:12.301Z,5.10
2019-05-31T16:50:41.740Z,5.97
2019-05-31T16:53:11.505Z,5.47
2019-05-31T16:55:40.481Z,5.10
2019-05-31T16:58:09.364Z,5.20
2019-05-31T17:00:38.249Z,4.50
2019-05-31T17:03:13.970Z,4.43
2019-05-31T17:05:37.626Z,5.20
2019-05-31T17:08:07.063Z,5.00
2019-05-31T17:10:36.310Z,4.47
2019-05-31T17:13:05.810Z,5.10
2019-05-31T17:15:35.196Z,5.20
2019-05-31T17:18:04.133Z,6.03
2019-05-31T17:20:33.289Z,5.37
2019-05-31T17:23:02.296Z,5.13
2019-05-31T17:25:31.131Z,5.70
2019-05-31T17:28:00.273Z,5.50
2019-05-31T17:30:39.050Z,6.00
2019-05-31T17:33:09.742Z,5.70
2019-05-31T17:35:40.143Z,5.67
2019-05-31T17:38:10.215Z,4.70
2019-05-31T17:40:39.183Z,5.35
2019-05-31T17:43:08.264Z,5.60
2019-05-31T17:45:37.541Z,5.93
2019-05-31T17:48:06.401Z,5.93
2019-05-31T17:50:35.255Z,5.10
2019-05-31T17:53:04.282Z,6.23
2019-05-31T17:55:33.624Z,4.90
2019-05-31T17:58:02.708Z,5.47
2019-05-31T18:00:36.587Z,6.17
2019-05-31T18:03:07.238Z,6.27
2019-05-31T18:05:36.882Z,7.40
2019-05-31T18:08:07.540Z,6.50
2019-05-31T18:10:43.625Z,6.60
2019-05-31T18:13:15.093Z,6.40
2019-05-31T18:15:44.403Z,7.00
2019-05-31T18:18:13.603Z,6.87
2019-05-31T18:20:43.841Z,6.13
2019-05-31T18:23:13.262Z,5.90
2019-05-31T18:25:42.771Z,6.27
2019-05-31T18:28:12.297Z,7.77
2019-05-31T18:30:46.443Z,7.00
2019-05-31T18:33:12.996Z,7.47
2019-05-31T18:35:42.625Z,7.63
2019-05-31T18:38:11.961Z,7.40
2019-05-31T18:40:41.030Z,7.43
2019-05-31T18:43:10.614Z,7.20
2019-05-31T18:45:39.588Z,6.70
2019-05-31T18:48:08.367Z,6.60
2019-05-31T18:50:37.621Z,7.20
2019-05-31T18:53:07.074Z,7.50
2019-05-31T18:55:42.739Z,6.47
2019-05-31T18:58:07.034Z,7.33
2019-05-31T19:00:42.116Z,6.60
2019-05-31T19:03:11.111Z,6.93
2019-05-31T19:05:40.364Z,5.70
2019-05-31T19:08:10.788Z,6.60
2019-05-31T19:10:39.810Z,7.73
2019-05-31T19:13:09.151Z,8.77
2019-05-31T19:15:38.112Z,8.80
2019-05-31T19:18:07.326Z,8.07
2019-05-31T19:20:36.285Z,8.60
2019-05-31T19:23:05.634Z,8.70
2019-05-31T19:25:48.917Z,7.40
2019-05-31T19:28:05.605Z,9.27
2019-05-31T19:30:36.670Z,8.77
2019-05-31T19:33:06.442Z,7.70
2019-05-31T19:35:35.549Z,8.70
2019-05-31T19:38:05.346Z,8.57
2019-05-31T19:40:34.982Z,9.00
2019-05-31T19:43:04.225Z,7.90
2019-05-31T19:45:33.293Z,8.50
2019-05-31T19:48:02.602Z,8.80
2019-05-31T19:50:32.949Z,8.20
2019-05-31T19:53:01.929Z,8.27
2019-05-31T19:55:30.912Z,8.60
2019-05-31T19:58:00.242Z,8.77
2019-05-31T20:00:29.264Z,9.23
2019-05-31T20:02:58.073Z,11.00
2019-05-31T20:05:27.768Z,10.47
2019-05-31T20:07:56.879Z,8.47
2019-05-31T20:10:28.038Z,10.00
2019-05-31T20:12:57.151Z,8.10
2019-05-31T20:15:28.219Z,8.63
2019-05-31T20:17:57.252Z,8.40
2019-05-31T20:20:27.342Z,8.27
2019-05-31T20:22:56.741Z,8.10
2019-05-31T20:25:29.701Z,9.70
2019-05-31T20:27:56.219Z,8.50
2019-05-31T20:35:42.230Z,9.83
2019-05-31T20:37:56.995Z,8.20
2019-05-31T20:40:29.775Z,8.30
2019-05-31T20:40:49.880Z,8.13
2019-05-31T20:45:29.085Z,9.30
2019-05-31T20:47:58.367Z,8.13
2019-05-31T20:50:27.322Z,7.37
2019-05-31T20:52:56.339Z,7.27
2019-05-31T20:55:26.317Z,8.10
2019-05-31T20:57:55.133Z,10.00
2019-05-31T21:00:24.897Z,8.60
2019-05-31T21:02:54.101Z,7.83
2019-05-31T21:05:23.015Z,8.30
2019-05-31T21:07:51.844Z,8.10
2019-05-31T21:10:21.258Z,8.43
2019-05-31T21:12:50.202Z,9.43
2019-05-31T21:15:19.143Z,10.20
2019-05-31T21:17:48.340Z,11.13
2019-05-31T21:20:17.218Z,10.53
2019-05-31T21:22:46.015Z,10.20
2019-05-31T21:25:16.058Z,10.07
2019-05-31T21:27:45.132Z,9.50
2019-05-31T21:30:16.325Z,10.30
2019-05-31T21:32:45.498Z,10.07
2019-05-31T21:35:14.490Z,8.60
2019-05-31T21:37:43.293Z,8.60
2019-05-31T21:40:13.941Z,9.10
2019-05-31T21:42:43.094Z,9.03
2019-05-31T21:45:12.945Z,9.07
2019-05-31T21:47:41.877Z,11.53
2019-05-31T21:50:12.800Z,10.67
2019-05-31T21:52:41.697Z,10.47
2019-05-31T21:55:12.036Z,10.20
2019-05-31T21:57:40.847Z,9.43
2019-05-31T22:00:13.234Z,9.03
2019-05-31T22:02:42.133Z,7.03
2019-05-31T22:05:11.634Z,8.47
2019-05-31T22:07:40.463Z,7.43
2019-05-31T22:10:10.252Z,7.80
2019-05-31T22:12:39.337Z,8.40
2019-05-31T22:15:08.678Z,8.07
2019-05-31T22:17:38.361Z,8.00
2019-05-31T22:20:07.804Z,8.73
2019-05-31T22:22:36.811Z,8.13
2019-05-31T22:25:06.654Z,9.33
2019-05-31T22:27:35.451Z,8.83
2019-05-31T22:30:06.885Z,9.00
2019-05-31T22:32:35.761Z,8.00
2019-05-31T22:35:05.047Z,8.27
2019-05-31T22:37:33.910Z,8.40
2019-05-31T22:40:02.829Z,8.00
2019-05-31T22:42:32.286Z,8.93
2019-05-31T22:45:01.289Z,9.20
2019-05-31T22:47:30.945Z,10.97
2019-05-31T22:49:59.956Z,9.97
2019-05-31T22:52:28.774Z,9.20
2019-05-31T22:54:57.640Z,8.10
2019-05-31T22:57:26.452Z,8.43
2019-05-31T22:59:55.545Z,7.67
2019-05-31T23:02:24.358Z,9.30
2019-05-31T23:04:53.508Z,8.40
2019-05-31T23:07:22.310Z,8.77
2019-05-31T23:09:51.199Z,8.50
2019-05-31T23:12:20.024Z,7.80
2019-05-31T23:14:48.827Z,7.60
2019-05-31T23:17:17.858Z,10.07
2019-05-31T23:19:47.494Z,10.43
2019-05-31T23:22:16.392Z,10.67
2019-05-31T23:24:45.189Z,8.80
2019-05-31T23:27:13.992Z,9.90
2019-05-31T23:29:57.048Z,8.70
2019-05-31T23:32:13.725Z,9.77
2019-05-31T23:34:42.568Z,10.33
2019-05-31T23:37:11.411Z,8.77
2019-05-31T23:39:40.232Z,7.97
2019-05-31T23:42:09.047Z,9.13
2019-05-31T23:44:38.391Z,9.83
2019-05-31T23:47:07.961Z,8.00
2019-05-31T23:49:37.175Z,8.87
2019-05-31T23:52:05.967Z,7.97
2019-05-31T23:54:34.787Z,8.33
2019-05-31T23:57:03.907Z,8.57
2019-05-31T23:59:33.040Z,6.53
